createdAt,value
2019-02-24T00:01:28.226Z,13.50
2019-02-24T00:03:57.874Z,13.50
2019-02-24T00:06:27.759Z,13.50
2019-02-24T00:08:57.374Z,13.50
2019-02-24T00:11:27.134Z,13.50
2019-02-24T00:13:56.898Z,13.50
2019-02-24T00:16:27.049Z,13.50
2019-02-24T00:18:56.935Z,13.40
2019-02-24T00:21:26.561Z,13.40
2019-02-24T00:23:56.224Z,13.40
2019-02-24T00:26:25.854Z,13.40
2019-02-24T00:28:55.455Z,13.40
2019-02-24T00:31:25.075Z,13.40
2019-02-24T00:33:54.685Z,13.40
2019-02-24T00:36:24.593Z,13.40
2019-02-24T00:38:54.192Z,13.40
2019-02-24T00:41:23.795Z,13.40
2019-02-24T00:43:53.508Z,13.40
2019-02-24T00:46:23.246Z,13.30
2019-02-24T00:48:52.843Z,13.30
2019-02-24T00:51:22.483Z,13.30
2019-02-24T00:53:52.076Z,13.40
2019-02-24T00:56:21.755Z,13.30
2019-02-24T00:58:51.366Z,13.40
2019-02-24T01:01:21.069Z,13.30
2019-02-24T01:03:50.697Z,13.30
2019-02-24T01:06:20.468Z,13.30
2019-02-24T01:08:50.083Z,13.30
2019-02-24T01:11:19.733Z,13.50
2019-02-24T01:13:49.342Z,13.30
2019-02-24T01:16:18.940Z,13.30
2019-02-24T01:18:48.668Z,13.30
2019-02-24T01:21:18.276Z,13.30
2019-02-24T01:23:48.141Z,13.30
2019-02-24T01:26:17.836Z,13.30
2019-02-24T01:28:47.488Z,13.30
2019-02-24T01:31:17.146Z,13.30
2019-02-24T01:33:46.816Z,13.30
2019-02-24T01:36:16.548Z,13.30
2019-02-24T01:38:46.494Z,13.30
2019-02-24T01:41:16.198Z,13.30
2019-02-24T01:43:45.834Z,13.30
2019-02-24T01:46:15.506Z,13.30
2019-02-24T01:48:45.149Z,13.30
2019-02-24T01:51:14.878Z,13.30
2019-02-24T01:53:44.769Z,13.30
2019-02-24T01:56:14.447Z,13.30
2019-02-24T01:58:44.151Z,13.30
2019-02-24T02:01:13.752Z,13.30
2019-02-24T02:03:43.366Z,13.30
2019-02-24T02:06:12.979Z,13.30
2019-02-24T02:08:42.697Z,13.30
2019-02-24T02:11:12.391Z,13.30
2019-02-24T02:13:41.996Z,13.30
2019-02-24T02:16:11.636Z,13.30
2019-02-24T02:18:41.309Z,13.50
2019-02-24T02:21:10.915Z,13.20
2019-02-24T02:23:40.541Z,13.10
2019-02-24T02:26:10.141Z,13.20
2019-02-24T02:28:44.009Z,13.10
2019-02-24T02:31:11.127Z,13.10
2019-02-24T02:33:40.974Z,13.20
2019-02-24T02:36:11.240Z,13.20
2019-02-24T02:38:40.871Z,13.10
2019-02-24T02:41:10.617Z,13.10
2019-02-24T02:43:40.425Z,13.10
2019-02-24T02:46:10.023Z,13.60
2019-02-24T02:48:39.656Z,13.10
2019-02-24T02:51:09.759Z,13.10
2019-02-24T02:53:39.508Z,13.00
2019-02-24T02:56:09.147Z,13.10
2019-02-24T02:58:38.746Z,13.00
2019-02-24T03:01:08.385Z,13.10
2019-02-24T03:03:38.135Z,13.10
2019-02-24T03:06:12.220Z,13.30
2019-02-24T03:08:49.096Z,13.30
2019-02-24T03:11:19.974Z,13.30
2019-02-24T03:13:49.590Z,13.10
2019-02-24T03:16:22.978Z,13.00
2019-02-24T03:18:52.198Z,13.00
2019-02-24T03:21:21.852Z,13.00
2019-02-24T03:23:51.494Z,12.80
2019-02-24T03:26:21.282Z,13.00
2019-02-24T03:28:50.994Z,12.90
2019-02-24T03:31:20.705Z,12.90
2019-02-24T03:33:50.311Z,12.90
2019-02-24T03:36:19.910Z,12.80
2019-02-24T03:38:49.537Z,13.00
2019-02-24T03:41:19.150Z,12.90
2019-02-24T03:43:48.793Z,13.00
2019-02-24T03:46:18.404Z,12.90
2019-02-24T03:48:48.156Z,12.80
2019-02-24T03:51:18.047Z,12.80
2019-02-24T03:53:47.883Z,12.80
2019-02-24T03:56:17.783Z,12.80
2019-02-24T03:58:47.459Z,12.70
2019-02-24T04:01:17.085Z,12.70
2019-02-24T04:03:46.765Z,12.70
2019-02-24T04:06:16.406Z,12.70
2019-02-24T04:08:46.120Z,12.70
2019-02-24T04:11:15.838Z,12.60
2019-02-24T04:13:45.504Z,12.60
2019-02-24T04:16:15.290Z,13.30
2019-02-24T04:18:44.897Z,12.60
2019-02-24T04:21:14.556Z,12.60
2019-02-24T04:23:44.191Z,12.70
2019-02-24T04:26:13.796Z,12.50
2019-02-24T04:28:43.450Z,12.40
2019-02-24T04:31:13.045Z,12.50
2019-02-24T04:33:45.371Z,12.40
2019-02-24T04:36:14.963Z,12.50
2019-02-24T04:38:44.564Z,12.50
2019-02-24T04:41:14.179Z,12.40
2019-02-24T04:43:43.905Z,12.40
2019-02-24T04:46:13.505Z,12.30
2019-02-24T04:48:43.160Z,12.40
2019-02-24T04:51:12.847Z,12.40
2019-02-24T04:53:42.537Z,12.40
2019-02-24T04:56:12.135Z,12.40
2019-02-24T04:58:41.766Z,12.40
2019-02-24T05:01:11.399Z,12.50
2019-02-24T05:03:41.012Z,12.60
2019-02-24T05:06:10.626Z,12.50
2019-02-24T05:08:40.222Z,12.40
2019-02-24T05:11:09.861Z,12.50
2019-02-24T05:13:39.584Z,12.40
2019-02-24T05:16:09.194Z,12.40
2019-02-24T05:18:38.799Z,13.00
2019-02-24T05:21:08.441Z,12.40
2019-02-24T05:23:38.113Z,12.40
2019-02-24T05:26:07.731Z,12.30
2019-02-24T05:28:37.339Z,12.20
2019-02-24T05:31:07.028Z,12.30
2019-02-24T05:33:36.631Z,12.20
2019-02-24T05:36:06.261Z,12.10
2019-02-24T05:38:35.859Z,12.10
2019-02-24T05:41:05.644Z,12.20
2019-02-24T05:43:35.249Z,12.20
2019-02-24T05:46:04.845Z,12.10
2019-02-24T05:48:34.470Z,12.10
2019-02-24T05:51:04.141Z,12.10
2019-02-24T05:53:33.855Z,12.00
2019-02-24T05:56:03.455Z,12.10
2019-02-24T05:58:33.093Z,12.20
2019-02-24T06:01:02.728Z,12.20
2019-02-24T06:03:32.339Z,12.10
2019-02-24T06:06:01.935Z,12.10
2019-02-24T06:08:31.570Z,12.00
2019-02-24T06:11:01.164Z,12.10
2019-02-24T06:13:30.796Z,12.20
2019-02-24T06:16:00.392Z,12.20
2019-02-24T06:18:30.011Z,12.20
2019-02-24T06:20:59.627Z,12.80
2019-02-24T06:23:30.756Z,12.30
2019-02-24T06:26:00.385Z,12.30
2019-02-24T06:28:30.032Z,12.30
2019-02-24T06:30:59.655Z,12.30
2019-02-24T06:33:29.319Z,12.30
2019-02-24T06:35:58.949Z,12.30
2019-02-24T06:38:28.595Z,12.30
2019-02-24T06:40:59.846Z,12.20
2019-02-24T06:43:29.717Z,12.30
2019-02-24T06:45:59.315Z,12.30
2019-02-24T06:48:28.959Z,12.20
2019-02-24T06:51:00.269Z,12.20
2019-02-24T06:53:29.975Z,12.20
2019-02-24T06:55:59.590Z,12.10
2019-02-24T06:58:29.293Z,12.10
2019-02-24T07:00:58.899Z,12.00
2019-02-24T07:03:28.682Z,12.00
2019-02-24T07:05:58.361Z,12.10
2019-02-24T07:08:27.973Z,12.40
2019-02-24T07:10:57.628Z,11.90
2019-02-24T07:13:27.338Z,11.90
2019-02-24T07:15:57.023Z,11.90
2019-02-24T07:18:26.688Z,11.90
2019-02-24T07:20:56.371Z,12.00
2019-02-24T07:23:26.072Z,11.90
2019-02-24T07:25:55.680Z,11.90
2019-02-24T07:28:25.313Z,11.90
2019-02-24T07:30:54.944Z,11.90
2019-02-24T07:33:24.625Z,11.80
2019-02-24T07:35:54.274Z,11.90
2019-02-24T07:38:23.875Z,11.70
2019-02-24T07:40:53.500Z,11.80
2019-02-24T07:43:23.107Z,11.70
2019-02-24T07:45:52.707Z,11.80
2019-02-24T07:48:22.332Z,11.80
2019-02-24T07:50:51.988Z,11.70
2019-02-24T07:53:21.611Z,11.70
2019-02-24T07:55:51.252Z,11.70
2019-02-24T07:58:20.840Z,11.70
2019-02-24T08:00:50.455Z,11.70
2019-02-24T08:03:20.088Z,11.70
2019-02-24T08:05:49.676Z,11.70
2019-02-24T08:08:19.307Z,11.70
2019-02-24T08:10:48.919Z,11.70
2019-02-24T08:13:18.622Z,11.60
2019-02-24T08:15:48.222Z,11.50
2019-02-24T08:18:17.857Z,11.60
2019-02-24T08:20:47.493Z,11.50
2019-02-24T08:23:17.419Z,11.40
2019-02-24T08:25:47.110Z,11.50
2019-02-24T08:28:16.744Z,11.40
2019-02-24T08:30:46.445Z,11.40
2019-02-24T08:33:16.080Z,11.40
2019-02-24T08:35:45.680Z,11.30
2019-02-24T08:38:15.354Z,11.30
2019-02-24T08:40:45.039Z,11.30
2019-02-24T08:43:14.792Z,11.20
2019-02-24T08:45:44.380Z,11.30
2019-02-24T08:48:14.574Z,11.20
2019-02-24T08:50:44.214Z,11.30
2019-02-24T08:53:13.944Z,11.20
2019-02-24T08:55:43.653Z,11.20
2019-02-24T08:58:13.641Z,11.30
2019-02-24T09:00:50.784Z,11.20
2019-02-24T09:03:14.687Z,11.20
2019-02-24T09:05:44.530Z,11.30
2019-02-24T09:08:14.239Z,11.20
2019-02-24T09:12:18.607Z,11.20
2019-02-24T09:14:48.346Z,11.20
2019-02-24T09:17:18.131Z,11.20
2019-02-24T09:19:47.806Z,8.70
2019-02-24T09:22:17.585Z,8.90
2019-02-24T09:24:47.686Z,8.30
2019-02-24T09:27:17.316Z,7.50
2019-02-24T09:29:46.944Z,9.10
2019-02-24T09:32:16.601Z,9.20
2019-02-24T09:34:46.220Z,9.20
2019-02-24T09:37:15.882Z,9.20
2019-02-24T09:39:45.543Z,9.20
2019-02-24T09:42:15.176Z,9.20
2019-02-24T09:44:44.794Z,9.40
2019-02-24T09:47:14.433Z,9.40
2019-02-24T09:49:44.103Z,9.70
2019-02-24T09:52:13.807Z,9.80
2019-02-24T09:54:43.404Z,9.90
2019-02-24T09:57:13.048Z,9.70
2019-02-24T09:59:42.676Z,9.90
2019-02-24T10:02:12.514Z,10.00
2019-02-24T10:04:42.121Z,10.00
2019-02-24T10:07:11.730Z,10.00
2019-02-24T10:09:41.487Z,10.00
2019-02-24T10:12:11.179Z,9.90
2019-02-24T10:14:40.943Z,10.70
2019-02-24T10:17:10.607Z,10.10
2019-02-24T10:19:40.469Z,10.10
2019-02-24T10:22:10.154Z,10.10
2019-02-24T10:24:39.943Z,10.20
2019-02-24T10:27:09.650Z,10.30
2019-02-24T10:29:39.279Z,10.20
2019-02-24T10:32:09.007Z,10.20
2019-02-24T10:34:38.645Z,10.90
2019-02-24T10:37:08.348Z,10.20
2019-02-24T10:39:37.956Z,10.20
2019-02-24T10:42:07.634Z,10.30
2019-02-24T10:44:37.306Z,10.30
2019-02-24T10:47:06.970Z,10.30
2019-02-24T10:49:36.633Z,10.30
2019-02-24T10:52:06.479Z,10.30
2019-02-24T10:54:36.313Z,10.40
2019-02-24T10:57:08.668Z,10.40
2019-02-24T10:59:37.461Z,10.50
2019-02-24T11:02:07.345Z,10.50
2019-02-24T11:04:37.078Z,10.50
2019-02-24T11:07:06.790Z,10.70
2019-02-24T11:09:36.509Z,11.00
2019-02-24T11:12:06.157Z,11.00
2019-02-24T11:14:35.780Z,11.00
2019-02-24T11:17:05.564Z,11.30
2019-02-24T11:19:35.170Z,11.90
2019-02-24T11:22:05.250Z,11.70
2019-02-24T11:24:34.926Z,12.50
2019-02-24T11:27:04.590Z,13.20
2019-02-24T11:29:34.249Z,12.90
2019-02-24T11:32:03.967Z,12.80
2019-02-24T11:34:33.645Z,12.90
2019-02-24T11:37:03.271Z,12.90
2019-02-24T11:39:34.533Z,12.80
2019-02-24T11:42:04.292Z,12.60
2019-02-24T11:44:33.904Z,12.50
2019-02-24T11:47:03.554Z,12.40
2019-02-24T11:49:33.294Z,12.50
2019-02-24T11:52:04.078Z,12.50
2019-02-24T11:54:35.073Z,12.50
2019-02-24T11:57:04.761Z,12.50
2019-02-24T11:59:34.480Z,12.60
2019-02-24T12:02:04.188Z,12.60
2019-02-24T12:04:33.898Z,12.60
2019-02-24T12:07:03.506Z,12.60
2019-02-24T12:09:33.148Z,12.80
2019-02-24T12:12:02.923Z,12.80
2019-02-24T12:14:32.573Z,12.90
2019-02-24T12:17:02.227Z,12.90
2019-02-24T12:19:31.947Z,13.30
2019-02-24T12:22:01.658Z,12.70
2019-02-24T12:24:31.283Z,12.70
2019-02-24T12:27:01.289Z,13.20
2019-02-24T12:29:30.996Z,12.70
2019-02-24T12:32:00.736Z,12.70
2019-02-24T12:34:30.446Z,12.70
2019-02-24T12:37:00.065Z,12.70
2019-02-24T12:39:29.717Z,12.80
2019-02-24T12:41:59.325Z,12.80
2019-02-24T12:44:28.966Z,12.60
2019-02-24T12:47:00.431Z,12.70
2019-02-24T12:49:30.036Z,12.80
2019-02-24T12:51:59.737Z,12.70
2019-02-24T12:54:29.341Z,12.70
2019-02-24T12:56:58.972Z,12.50
2019-02-24T13:15:03.349Z,9.70
2019-02-24T13:17:33.314Z,10.60
2019-02-24T13:20:02.948Z,11.20
2019-02-24T13:22:32.762Z,11.70
2019-02-24T13:25:02.510Z,12.10
2019-02-24T13:27:32.197Z,12.10
2019-02-24T13:30:01.929Z,12.30
2019-02-24T13:32:30.507Z,12.30
2019-02-24T13:35:00.293Z,12.40
2019-02-24T13:37:30.787Z,12.50
2019-02-24T13:40:00.617Z,12.40
2019-02-24T13:42:30.318Z,12.40
2019-02-24T13:45:10.950Z,12.50
2019-02-24T13:47:40.641Z,13.10
2019-02-24T13:50:10.652Z,12.40
2019-02-24T13:52:40.389Z,12.20
2019-02-24T13:55:13.008Z,12.30
2019-02-24T13:57:42.795Z,12.30
2019-02-24T14:00:21.762Z,12.40
2019-02-24T14:02:51.452Z,12.30
2019-02-24T14:05:21.170Z,12.30
2019-02-24T14:07:50.822Z,12.60
2019-02-24T14:10:20.509Z,12.30
2019-02-24T14:12:50.254Z,12.10
2019-02-24T14:15:19.928Z,12.20
2019-02-24T14:17:49.520Z,12.20
2019-02-24T14:20:19.863Z,12.10
2019-02-24T14:22:49.663Z,12.20
2019-02-24T14:25:19.336Z,12.10
2019-02-24T14:27:48.981Z,12.10
2019-02-24T14:30:19.693Z,12.10
2019-02-24T14:32:49.480Z,12.10
2019-02-24T14:35:22.935Z,12.10
2019-02-24T14:37:52.671Z,12.10
2019-02-24T14:40:22.419Z,12.00
2019-02-24T14:42:52.140Z,12.10
2019-02-24T14:45:25.415Z,12.10
2019-02-24T14:47:55.085Z,12.20
2019-02-24T14:50:24.797Z,12.10
2019-02-24T14:52:56.123Z,12.10
2019-02-24T14:55:26.007Z,12.10
2019-02-24T14:57:55.636Z,12.10
2019-02-24T15:00:25.799Z,12.10
2019-02-24T15:02:55.408Z,12.10
2019-02-24T15:05:25.132Z,12.00
2019-02-24T15:07:54.775Z,12.10
2019-02-24T15:10:27.999Z,12.10
2019-02-24T15:12:57.755Z,12.10
2019-02-24T15:15:33.946Z,12.10
2019-02-24T15:18:03.614Z,12.10
2019-02-24T15:20:33.536Z,12.10
2019-02-24T15:23:03.278Z,12.00
2019-02-24T15:25:32.878Z,12.10
2019-02-24T15:28:02.578Z,12.10
2019-02-24T15:30:37.864Z,12.30
2019-02-24T15:33:07.644Z,12.10
2019-02-24T15:35:37.268Z,12.00
2019-02-24T15:38:07.055Z,12.00
2019-02-24T15:40:36.653Z,11.90
2019-02-24T15:43:06.655Z,12.00
2019-02-24T15:45:36.406Z,12.10
2019-02-24T15:48:06.261Z,12.00
2019-02-24T15:50:35.962Z,12.10
2019-02-24T15:53:05.723Z,12.10
2019-02-24T15:55:35.380Z,12.20
2019-02-24T15:58:05.063Z,12.30
2019-02-24T16:00:34.684Z,12.20
2019-02-24T16:03:04.409Z,12.30
2019-02-24T16:05:34.066Z,12.30
2019-02-24T16:08:03.775Z,12.40
2019-02-24T16:10:33.447Z,12.60
2019-02-24T16:13:03.285Z,12.60
2019-02-24T16:15:32.967Z,12.50
2019-02-24T16:18:02.603Z,12.60
2019-02-24T16:20:35.481Z,12.60
2019-02-24T16:23:05.321Z,12.80
2019-02-24T16:25:34.939Z,12.70
2019-02-24T16:28:04.643Z,12.70
2019-02-24T16:30:34.395Z,12.70
2019-02-24T16:33:10.278Z,12.80
2019-02-24T16:35:35.713Z,12.80
2019-02-24T16:38:05.389Z,12.80
2019-02-24T16:40:35.274Z,12.80
2019-02-24T16:43:05.080Z,13.00
2019-02-24T16:45:34.761Z,13.00
2019-02-24T16:48:05.143Z,13.10
2019-02-24T16:50:35.084Z,13.00
2019-02-24T16:53:05.003Z,13.10
2019-02-24T16:55:34.801Z,13.80
2019-02-24T16:58:04.552Z,13.10
2019-02-24T17:00:34.398Z,13.00
2019-02-24T17:03:04.370Z,13.00
2019-02-24T17:05:34.122Z,13.00
2019-02-24T17:08:03.873Z,13.00
2019-02-24T17:10:33.585Z,13.10
2019-02-24T17:13:03.341Z,13.20
2019-02-24T17:15:33.023Z,13.30
2019-02-24T17:18:02.709Z,13.10
2019-02-24T17:20:32.471Z,13.10
2019-02-24T17:23:02.065Z,13.10
2019-02-24T17:25:31.722Z,13.20
2019-02-24T17:28:01.397Z,13.10
2019-02-24T17:30:31.139Z,13.30
2019-02-24T17:33:01.836Z,13.30
2019-02-24T17:35:31.614Z,13.40
2019-02-24T17:38:01.318Z,13.60
2019-02-24T17:40:30.997Z,13.70
2019-02-24T17:43:00.691Z,13.70
2019-02-24T17:45:30.467Z,13.70
2019-02-24T17:48:00.192Z,13.60
2019-02-24T17:50:29.921Z,13.70
2019-02-24T17:52:59.572Z,13.70
2019-02-24T17:55:29.270Z,13.60
2019-02-24T17:57:58.896Z,13.70
2019-02-24T18:00:31.707Z,13.80
2019-02-24T18:03:01.406Z,13.60
2019-02-24T18:05:31.494Z,13.60
2019-02-24T18:08:01.253Z,13.70
2019-02-24T18:10:30.932Z,13.70
2019-02-24T18:13:00.547Z,13.70
2019-02-24T18:15:30.249Z,13.60
2019-02-24T18:18:00.084Z,13.60
2019-02-24T18:20:29.931Z,13.60
2019-02-24T18:22:59.739Z,13.60
2019-02-24T18:25:29.466Z,13.60
2019-02-24T18:27:59.090Z,13.60
2019-02-24T18:30:31.169Z,13.70
2019-02-24T18:33:01.192Z,13.70
2019-02-24T18:35:31.010Z,13.60
2019-02-24T18:38:01.829Z,13.60
2019-02-24T18:40:31.449Z,13.60
2019-02-24T18:43:01.322Z,13.60
2019-02-24T18:45:31.126Z,13.60
2019-02-24T18:48:00.941Z,13.70
2019-02-24T18:50:30.742Z,13.60
2019-02-24T18:53:00.391Z,13.70
2019-02-24T18:55:30.077Z,13.60
2019-02-24T18:57:59.831Z,13.60
2019-02-24T19:00:29.618Z,13.60
2019-02-24T19:02:59.221Z,13.50
2019-02-24T19:05:28.953Z,13.60
2019-02-24T19:07:58.637Z,13.50
2019-02-24T19:10:28.525Z,13.60
2019-02-24T19:12:58.438Z,13.50
2019-02-24T19:15:28.283Z,13.50
2019-02-24T19:17:58.032Z,13.50
2019-02-24T19:20:27.696Z,13.60
2019-02-24T19:22:57.376Z,13.50
2019-02-24T19:25:27.086Z,13.60
2019-02-24T19:27:56.927Z,13.50
2019-02-24T19:30:26.712Z,13.20
2019-02-24T19:32:56.400Z,13.60
2019-02-24T19:35:26.089Z,13.50
2019-02-24T19:37:55.824Z,13.50
2019-02-24T19:40:25.618Z,13.50
2019-02-24T19:42:55.235Z,13.50
2019-02-24T19:45:27.004Z,13.50
2019-02-24T19:47:56.862Z,13.50
2019-02-24T19:50:26.589Z,13.50
2019-02-24T19:52:56.312Z,13.50
2019-02-24T19:55:25.908Z,13.50
2019-02-24T19:57:55.723Z,13.50
2019-02-24T20:00:26.857Z,14.00
2019-02-24T20:02:59.466Z,13.50
2019-02-24T20:05:29.065Z,13.50
2019-02-24T20:07:58.793Z,13.50
2019-02-24T20:10:30.271Z,13.50
2019-02-24T20:12:59.903Z,13.50
2019-02-24T20:15:29.685Z,13.50
2019-02-24T20:17:59.428Z,13.50
2019-02-24T20:20:29.136Z,13.50
2019-02-24T20:22:58.746Z,13.50
2019-02-24T20:25:28.410Z,13.50
2019-02-24T20:27:58.102Z,13.50
2019-02-24T20:30:37.886Z,13.40
2019-02-24T20:33:07.719Z,13.70
2019-02-24T20:35:37.455Z,13.50
2019-02-24T20:38:07.154Z,13.40
2019-02-24T20:40:36.834Z,13.50
2019-02-24T20:43:06.606Z,13.40
2019-02-24T20:49:27.981Z,1.00
2019-02-24T20:51:57.676Z,1.00
2019-02-24T20:54:27.279Z,1.00
2019-02-24T20:56:56.885Z,1.00
2019-02-24T20:59:26.526Z,1.00
2019-02-24T21:01:56.104Z,1.00
2019-02-24T21:04:25.704Z,1.00
2019-02-24T21:06:55.393Z,1.00
2019-02-24T21:09:25.022Z,1.00
2019-02-24T21:11:54.659Z,1.00
2019-02-24T21:14:24.285Z,1.00
2019-02-24T21:16:54.001Z,1.00
2019-02-24T21:19:23.616Z,1.00
2019-02-24T21:21:53.275Z,1.00
2019-02-24T21:24:22.921Z,1.00
2019-02-24T21:26:52.530Z,1.00
2019-02-24T21:29:22.122Z,1.00
2019-02-24T21:31:51.764Z,1.00
2019-02-24T21:34:21.448Z,1.00
2019-02-24T21:36:51.033Z,1.00
2019-02-24T21:39:20.703Z,1.00
2019-02-24T21:41:50.536Z,1.00
2019-02-24T21:44:20.184Z,1.00
2019-02-24T21:46:49.847Z,1.00
2019-02-24T21:49:19.473Z,1.00
2019-02-24T21:51:49.199Z,1.00
2019-02-24T21:54:18.883Z,1.00
2019-02-24T21:56:48.545Z,2.30
2019-02-24T21:59:18.187Z,2.70
2019-02-24T22:01:47.895Z,2.80
2019-02-24T22:04:17.553Z,2.80
2019-02-24T22:06:47.287Z,1.10
2019-02-24T22:09:17.035Z,2.70
2019-02-24T22:11:46.703Z,1.10
2019-02-24T22:14:16.388Z,1.00
2019-02-24T22:16:46.023Z,1.00
2019-02-24T22:19:15.670Z,1.30
2019-02-24T22:21:45.360Z,1.30
2019-02-24T22:24:14.990Z,2.20
2019-02-24T22:26:44.646Z,2.50
2019-02-24T22:29:14.310Z,1.60
2019-02-24T22:31:44.007Z,1.00
2019-02-24T22:34:13.648Z,2.00
2019-02-24T22:36:43.331Z,2.30
2019-02-24T22:39:12.929Z,1.00
2019-02-24T22:41:42.519Z,1.00
2019-02-24T22:44:12.203Z,1.00
2019-02-24T22:46:41.791Z,1.00
2019-02-24T22:49:11.489Z,1.00
2019-02-24T22:51:41.078Z,1.00
2019-02-24T22:54:10.666Z,1.00
2019-02-24T22:56:40.443Z,1.00
2019-02-24T22:59:10.022Z,1.00
2019-02-24T23:01:40.506Z,1.00
2019-02-24T23:04:11.606Z,1.00
2019-02-24T23:06:41.421Z,1.00
2019-02-24T23:09:13.729Z,1.00
2019-02-24T23:11:43.340Z,1.20
2019-02-24T23:14:12.927Z,1.00
2019-02-24T23:16:42.590Z,1.50
2019-02-24T23:19:12.615Z,2.00
2019-02-24T23:21:42.338Z,1.00
2019-02-24T23:24:11.962Z,1.00
2019-02-24T23:26:41.551Z,1.00
2019-02-24T23:29:11.169Z,1.00
2019-02-24T23:31:40.854Z,1.00
2019-02-24T23:34:10.469Z,1.00
2019-02-24T23:36:40.060Z,1.30
2019-02-24T23:39:11.867Z,1.50
2019-02-24T23:41:41.553Z,1.00
2019-02-24T23:44:11.407Z,1.60
2019-02-24T23:46:41.128Z,2.00
2019-02-24T23:49:10.705Z,2.20
2019-02-24T23:51:40.298Z,2.00
2019-02-24T23:54:09.946Z,1.90
2019-02-24T23:56:39.567Z,1.30
2019-02-24T23:59:09.556Z,1.60
